Time;durP1;ratioP1;P1;durP2;ratioP2;P2;SDS_P1;SDS_P2;PMS_P1;PMS_P2;Temp;Humidity;BMP_temperature;BMP_pressure;BME280_temperature;BME280_humidity;BME280_pressure;Samples;Min_cycle;Max_cycle;Signal;HPM_P1;HPM_P2
2021/07/03 00:01:53;;;;;;;5.40;3.83;;;;;;;26.35;51.62;100277.31;5031125;28;20029;-87
2021/07/03 00:04:18;;;;;;;6.55;4.85;;;;;;;26.34;51.76;100286.41;5031202;28;20468;-87
2021/07/03 00:06:44;;;;;;;7.35;4.05;;;;;;;26.35;51.92;100282.69;5034149;28;20088;-87
2021/07/03 00:09:09;;;;;;;5.95;4.93;;;;;;;26.37;51.84;100279.78;5031434;28;20042;-88
2021/07/03 00:11:35;;;;;;;4.80;4.30;;;;;;;26.34;51.96;100280.19;5031121;28;20080;-88
2021/07/03 00:14:00;;;;;;;5.18;4.38;;;;;;;26.33;51.92;100276.69;5031155;28;20047;-87
2021/07/03 00:16:26;;;;;;;7.05;4.78;;;;;;;26.34;51.88;100270.25;5031130;28;20091;-87
2021/07/03 00:18:51;;;;;;;6.13;4.85;;;;;;;26.31;51.95;100268.81;5033260;28;20025;-88
2021/07/03 00:21:17;;;;;;;4.75;4.05;;;;;;;26.29;51.94;100278.16;5042836;28;20029;-87
2021/07/03 00:23:42;;;;;;;5.65;4.65;;;;;;;26.28;52.10;100271.09;5054630;28;20445;-87
2021/07/03 00:26:07;;;;;;;7.10;4.22;;;;;;;26.28;51.92;100276.47;5054753;28;20031;-87
2021/07/03 00:28:33;;;;;;;5.45;4.32;;;;;;;26.27;52.17;100274.84;5054523;28;20033;-87
2021/07/03 00:30:58;;;;;;;6.88;4.32;;;;;;;26.25;51.97;100277.75;5048281;28;20029;-87
2021/07/03 00:33:23;;;;;;;4.35;3.83;;;;;;;26.25;52.21;100277.75;5034290;28;20025;-87
2021/07/03 00:35:49;;;;;;;5.03;4.05;;;;;;;26.24;51.88;100278.75;5034240;28;20123;-88
2021/07/03 00:38:14;;;;;;;6.43;4.95;;;;;;;26.24;52.19;100278.75;5034462;28;20079;-88
2021/07/03 00:40:40;;;;;;;6.55;4.78;;;;;;;26.25;52.12;100282.31;5034343;28;20502;-88
2021/07/03 00:43:05;;;;;;;5.00;4.50;;;;;;;26.22;51.96;100275.44;5034450;28;20074;-88
2021/07/03 00:45:31;;;;;;;5.55;4.80;;;;;;;26.23;52.22;100279.00;5034210;28;20124;-88
2021/07/03 00:47:56;;;;;;;5.72;4.53;;;;;;;26.23;52.11;100274.44;5034199;28;20116;-88
2021/07/03 00:50:22;;;;;;;5.28;4.40;;;;;;;26.23;52.13;100276.31;5038218;28;20032;-87
2021/07/03 00:52:47;;;;;;;5.85;4.40;;;;;;;26.21;51.81;100271.13;5053843;28;20089;-88
2021/07/03 00:55:16;;;;;;;5.18;4.68;;;;;;;26.20;52.14;100276.72;5053092;28;20035;-88
2021/07/03 00:57:43;;;;;;;5.68;4.13;;;;;;;26.01;52.15;100271.16;5033897;28;20072;-87
2021/07/03 01:00:09;;;;;;;7.00;5.45;;;;;;;26.04;52.15;100269.91;5034085;28;20026;-87
2021/07/03 01:02:35;;;;;;;6.63;4.38;;;;;;;26.02;51.95;100256.66;5033779;28;20029;-86
2021/07/03 01:05:00;;;;;;;8.75;5.07;;;;;;;26.07;52.14;100248.78;5033938;28;20032;-87
2021/07/03 01:07:26;;;;;;;6.78;4.90;;;;;;;26.06;52.30;100247.13;5033985;28;20033;-88
2021/07/03 01:09:51;;;;;;;5.00;4.40;;;;;;;26.01;52.27;100243.44;5051822;28;20100;-87
2021/07/03 01:12:17;;;;;;;4.80;4.20;;;;;;;26.07;52.00;100238.03;5053839;28;20029;-87
2021/07/03 01:14:44;;;;;;;7.82;4.47;;;;;;;26.06;52.09;100225.59;5053666;28;20028;-87
2021/07/03 01:17:10;;;;;;;7.95;4.57;;;;;;;26.07;51.98;100221.06;5053562;28;20104;-86
2021/07/03 01:19:37;;;;;;;7.35;4.53;;;;;;;26.04;51.85;100235.75;5050233;28;20048;-86
2021/07/03 01:22:05;;;;;;;4.60;4.10;;;;;;;26.05;51.86;100241.97;5035106;28;20033;-87
2021/07/03 01:24:30;;;;;;;5.70;4.25;;;;;;;26.01;52.26;100233.50;5053379;28;20074;-87
2021/07/03 01:26:55;;;;;;;6.57;4.32;;;;;;;26.01;52.20;100236.19;5053458;28;20029;-86
2021/07/03 01:29:23;;;;;;;4.80;4.32;;;;;;;26.01;51.94;100233.50;5053253;28;20025;-87
2021/07/03 01:31:50;;;;;;;5.30;4.32;;;;;;;25.98;52.00;100233.91;5053256;28;20021;-87
2021/07/03 01:34:18;;;;;;;5.20;4.22;;;;;;;25.96;51.99;100227.09;5053136;28;20029;-87
2021/07/03 01:36:44;;;;;;;3.92;3.53;;;;;;;25.94;51.94;100232.66;5052148;28;20071;-87
2021/07/03 01:39:10;;;;;;;5.07;3.83;;;;;;;25.91;52.32;100239.31;5033354;28;20021;-88
2021/07/03 01:41:36;;;;;;;10.57;4.43;;;;;;;25.95;52.20;100237.03;5033042;28;20380;-87
2021/07/03 01:44:01;;;;;;;6.47;4.13;;;;;;;25.92;52.08;100240.13;5032026;28;20482;-88
2021/07/03 01:46:27;;;;;;;4.75;3.83;;;;;;;25.91;52.12;100241.19;5033141;28;20037;-87
2021/07/03 01:48:52;;;;;;;4.65;4.07;;;;;;;25.90;52.26;100239.47;5033915;28;20037;-87
2021/07/03 01:51:18;;;;;;;5.25;3.80;;;;;;;25.90;52.26;100237.63;5033010;28;20038;-87
2021/07/03 01:53:43;;;;;;;4.43;3.83;;;;;;;25.91;52.53;100227.72;5033029;28;20034;-87
2021/07/03 01:56:09;;;;;;;5.40;3.65;;;;;;;25.89;52.32;100219.84;5033058;28;20082;-88
2021/07/03 01:58:35;;;;;;;4.78;3.63;;;;;;;25.87;52.29;100213.84;5033375;28;20037;-87
2021/07/03 02:01:01;;;;;;;7.18;4.10;;;;;;;25.87;52.38;100223.75;5032942;28;20364;-87
2021/07/03 02:03:27;;;;;;;4.72;3.65;;;;;;;25.86;52.30;100217.53;5044784;28;20119;-88
2021/07/03 02:05:52;;;;;;;4.85;3.58;;;;;;;25.84;52.51;100216.94;5036480;28;20171;-87
2021/07/03 02:08:20;;;;;;;4.50;4.00;;;;;;;25.83;52.55;100207.22;5032724;28;20033;-88
2021/07/03 02:10:45;;;;;;;4.57;3.63;;;;;;;25.86;52.02;100211.34;5032768;28;20065;-87
2021/07/03 02:13:10;;;;;;;5.03;3.70;;;;;;;25.87;52.20;100202.22;5032555;28;20045;-87
2021/07/03 02:15:36;;;;;;;3.90;3.08;;;;;;;25.86;52.27;100197.91;5048042;28;20120;-88
2021/07/03 02:18:02;;;;;;;4.82;4.00;;;;;;;25.86;52.26;100197.91;5051507;28;20433;-87
2021/07/03 02:20:28;;;;;;;5.05;3.63;;;;;;;25.86;52.48;100193.34;5050820;28;20032;-87
2021/07/03 02:22:54;;;;;;;4.72;3.78;;;;;;;25.84;52.39;100187.34;5052261;28;20047;-87
2021/07/03 02:25:20;;;;;;;3.92;3.33;;;;;;;25.81;52.20;100185.09;5052314;28;20028;-87
2021/07/03 02:27:46;;;;;;;7.88;4.05;;;;;;;25.81;52.67;100186.94;5052135;28;20483;-87
2021/07/03 02:30:14;;;;;;;5.63;3.95;;;;;;;25.79;52.46;100180.94;5052207;28;20036;-88
2021/07/03 02:32:40;;;;;;;4.38;3.97;;;;;;;25.79;52.36;100187.16;5051565;28;20471;-88
2021/07/03 02:35:06;;;;;;;4.85;3.67;;;;;;;25.80;52.06;100183.41;5043620;28;20460;-87
2021/07/03 02:37:32;;;;;;;6.40;3.88;;;;;;;25.78;52.04;100184.69;5051866;28;20040;-87
2021/07/03 02:39:57;;;;;;;5.32;3.85;;;;;;;25.80;52.03;100179.91;5052055;28;20033;-87
2021/07/03 02:42:22;;;;;;;5.05;4.25;;;;;;;25.77;52.26;100177.63;5051567;28;20112;-87
2021/07/03 02:44:48;;;;;;;5.70;4.30;;;;;;;25.76;52.47;100182.19;5042740;28;20490;-87
2021/07/03 02:47:13;;;;;;;6.88;4.20;;;;;;;25.76;52.16;100184.88;5031768;28;20049;-87
2021/07/03 02:49:39;;;;;;;5.00;3.83;;;;;;;25.76;52.02;100184.06;5047524;28;20041;-87
2021/07/03 02:52:04;;;;;;;4.75;3.63;;;;;;;25.75;52.38;100177.88;5031918;28;20033;-87
2021/07/03 02:54:30;;;;;;;5.07;4.10;;;;;;;25.75;52.59;100190.47;5031989;28;20027;-87
2021/07/03 02:56:57;;;;;;;5.70;4.00;;;;;;;25.73;52.64;100180.75;5041451;28;20430;-87
2021/07/03 02:59:24;;;;;;;5.03;4.35;;;;;;;25.73;52.16;100177.22;5051845;28;20059;-89
2021/07/03 03:01:51;;;;;;;5.40;4.35;;;;;;;25.72;52.21;100187.16;5050008;28;20068;-88
2021/07/03 03:04:16;;;;;;;5.63;3.95;;;;;;;25.71;52.11;100188.22;5051731;28;20067;-88
2021/07/03 03:06:42;;;;;;;5.47;4.25;;;;;;;25.71;52.39;100179.28;5051648;28;20029;-88
2021/07/03 03:09:07;;;;;;;4.22;3.60;;;;;;;25.67;52.42;100168.16;5051806;28;20430;-88
2021/07/03 03:11:32;;;;;;;6.80;4.30;;;;;;;25.70;52.20;100178.47;5051606;28;20459;-88
2021/07/03 03:13:58;;;;;;;4.82;4.32;;;;;;;25.68;52.32;100180.53;5050315;28;20067;-87
2021/07/03 03:16:25;;;;;;;5.28;4.07;;;;;;;25.67;52.14;100172.69;5031623;28;20020;-87
2021/07/03 03:18:51;;;;;;;4.82;4.32;;;;;;;25.65;52.18;100164.84;5031705;28;20174;-87
2021/07/03 03:21:16;;;;;;;6.05;4.50;;;;;;;25.66;52.46;100166.50;5031542;28;20032;-87
2021/07/03 03:23:41;;;;;;;5.13;4.50;;;;;;;25.67;52.44;100162.78;5031448;28;20073;-86
2021/07/03 03:26:07;;;;;;;5.47;4.68;;;;;;;25.65;52.20;100156.78;5031596;28;20029;-86
2021/07/03 03:28:32;;;;;;;5.05;4.55;;;;;;;25.61;51.98;100158.25;5031349;28;20029;-87
2021/07/03 03:30:58;;;;;;;6.00;4.90;;;;;;;25.62;52.13;100154.50;5032389;28;20379;-87
2021/07/03 03:33:23;;;;;;;5.05;4.43;;;;;;;25.63;51.86;100141.88;5051275;28;20025;-87
2021/07/03 03:35:48;;;;;;;4.78;4.28;;;;;;;25.61;52.01;100147.47;5051422;28;20029;-87
2021/07/03 03:38:14;;;;;;;7.38;4.68;;;;;;;25.60;52.26;100147.69;5051757;28;20025;-87
2021/07/03 03:40:40;;;;;;;6.25;4.28;;;;;;;25.60;52.29;100139.63;5039073;28;20101;-87
2021/07/03 03:43:05;;;;;;;8.30;4.13;;;;;;;25.57;52.14;100134.66;5031353;28;20372;-87
2021/07/03 03:45:31;;;;;;;4.63;4.13;;;;;;;25.57;51.81;100130.09;5047368;28;20135;-87
2021/07/03 03:47:56;;;;;;;6.22;4.70;;;;;;;25.56;52.29;100133.00;5050809;28;20025;-87
2021/07/03 03:50:21;;;;;;;5.18;4.63;;;;;;;25.56;52.16;100128.47;5051335;28;20387;-87
2021/07/03 03:52:47;;;;;;;4.88;4.38;;;;;;;25.58;52.03;100128.25;5051667;28;20036;-87
2021/07/03 03:55:12;;;;;;;5.43;4.22;;;;;;;25.58;52.28;100125.56;5054249;28;20108;-88
2021/07/03 03:57:37;;;;;;;7.47;4.70;;;;;;;25.54;52.11;100127.84;5041709;28;20122;-87
2021/07/03 04:00:07;;;;;;;4.45;3.97;;;;;;;25.55;52.04;100126.78;5035114;28;20029;-87
2021/07/03 04:02:32;;;;;;;4.90;4.07;;;;;;;25.53;52.15;100120.78;5035076;28;20380;-87
2021/07/03 04:04:58;;;;;;;4.85;3.83;;;;;;;25.53;52.21;100121.66;5035173;28;20030;-86
2021/07/03 04:07:23;;;;;;;4.90;4.38;;;;;;;25.50;52.08;100113.16;5035352;28;20061;-86
2021/07/03 04:09:49;;;;;;;5.40;4.32;;;;;;;25.50;52.03;100105.91;5039323;28;20029;-87
2021/07/03 04:12:15;;;;;;;4.85;3.85;;;;;;;25.51;52.05;100107.59;5054779;28;20021;-87
2021/07/03 04:14:40;;;;;;;4.93;4.45;;;;;;;25.51;52.07;100104.06;5044749;28;20511;-87
2021/07/03 04:17:06;;;;;;;6.05;4.82;;;;;;;25.51;52.41;100112.13;5034643;28;20530;-87
2021/07/03 04:19:32;;;;;;;5.70;4.10;;;;;;;25.49;52.08;100106.97;5034843;28;20025;-87
2021/07/03 04:21:58;;;;;;;5.43;4.40;;;;;;;25.49;52.43;100106.97;5034720;28;20034;-87
2021/07/03 04:24:23;;;;;;;5.30;4.60;;;;;;;25.49;52.51;100109.66;5034840;28;20102;-88
2021/07/03 04:26:49;;;;;;;5.80;4.40;;;;;;;25.49;52.41;100111.50;5034653;28;20391;-87
2021/07/03 04:29:14;;;;;;;5.05;4.55;;;;;;;25.50;52.17;100108.59;5034413;28;20037;-87
2021/07/03 04:31:40;;;;;;;6.15;4.68;;;;;;;25.48;52.15;100109.88;5034549;28;20099;-87
2021/07/03 04:34:05;;;;;;;5.88;4.40;;;;;;;25.43;52.18;100105.09;5034497;28;20029;-87
2021/07/03 04:36:30;;;;;;;6.38;4.82;;;;;;;25.37;52.59;100105.13;5034625;28;20419;-87
2021/07/03 04:38:56;;;;;;;5.47;4.70;;;;;;;25.37;52.32;100102.44;5034638;28;20033;-88
2021/07/03 04:41:22;;;;;;;5.68;4.38;;;;;;;25.36;52.38;100101.59;5034496;28;20373;-87
2021/07/03 04:43:47;;;;;;;6.13;4.80;;;;;;;25.35;52.28;100099.94;5037284;28;20107;-87
2021/07/03 04:46:12;;;;;;;5.18;4.68;;;;;;;25.33;52.33;100094.78;5054105;28;20368;-87
2021/07/03 04:48:38;;;;;;;5.03;4.47;;;;;;;25.35;52.47;100104.50;5053882;28;20029;-86
2021/07/03 04:51:03;;;;;;;7.18;4.45;;;;;;;25.35;52.23;100101.81;5054188;28;20025;-86
2021/07/03 04:53:28;;;;;;;5.65;4.75;;;;;;;25.32;52.15;100101.19;5054309;28;20147;-86
2021/07/03 04:55:54;;;;;;;5.82;5.20;;;;;;;25.35;51.96;100099.94;5052972;28;20036;-86
2021/07/03 04:58:19;;;;;;;6.78;4.85;;;;;;;25.35;51.96;100099.13;5053630;28;20368;-86
2021/07/03 05:00:45;;;;;;;5.75;4.97;;;;;;;25.35;52.10;100091.06;5054141;28;20018;-86
2021/07/03 05:03:10;;;;;;;6.38;5.05;;;;;;;25.33;52.24;100105.53;5053869;28;20364;-86
2021/07/03 05:05:36;;;;;;;6.50;5.05;;;;;;;25.33;52.17;100100.16;5052883;28;20527;-86
2021/07/03 05:08:01;;;;;;;5.85;4.97;;;;;;;25.33;51.96;100108.22;5054677;28;20021;-87
2021/07/03 05:10:26;;;;;;;8.15;5.30;;;;;;;25.21;52.26;100109.84;5035818;28;20107;-86
2021/07/03 05:12:52;;;;;;;5.25;4.75;;;;;;;25.27;52.21;100108.22;5033803;28;20414;-86
2021/07/03 05:15:18;;;;;;;6.03;4.88;;;;;;;25.29;52.27;100116.91;5033780;28;20036;-87
2021/07/03 05:17:43;;;;;;;7.53;5.15;;;;;;;25.30;52.22;100110.50;5034605;28;20395;-86
2021/07/03 05:20:10;;;;;;;6.47;4.53;;;;;;;25.38;52.14;100109.47;5047879;28;20021;-87
2021/07/03 05:22:35;;;;;;;5.05;4.25;;;;;;;25.39;51.83;100105.72;5033724;28;20036;-86
2021/07/03 05:25:00;;;;;;;7.45;4.88;;;;;;;25.36;52.01;100114.22;5033739;28;20093;-87
2021/07/03 05:27:26;;;;;;;5.90;5.30;;;;;;;25.30;52.18;100108.63;5052912;28;20021;-87
2021/07/03 05:29:51;;;;;;;6.70;5.28;;;;;;;25.31;51.86;100109.47;5053196;28;20029;-86
2021/07/03 05:32:16;;;;;;;5.35;4.80;;;;;;;25.33;51.81;100102.84;5053168;28;20021;-86
2021/07/03 05:34:42;;;;;;;6.78;4.90;;;;;;;25.40;51.84;100112.78;5053377;28;20052;-86
2021/07/03 05:37:07;;;;;;;6.93;4.80;;;;;;;25.39;51.92;100105.72;5037234;28;20029;-87
2021/07/03 05:39:33;;;;;;;6.57;4.93;;;;;;;25.41;51.73;100109.03;5033126;28;20033;-87
2021/07/03 05:41:59;;;;;;;7.55;5.30;;;;;;;25.43;51.68;100112.34;5033129;28;20025;-87
2021/07/03 05:44:25;;;;;;;8.88;5.35;;;;;;;25.43;51.90;100109.66;5044789;28;20029;-87
2021/07/03 05:46:50;;;;;;;5.47;4.97;;;;;;;25.39;52.09;100108.41;5053072;28;20479;-87
2021/07/03 05:49:17;;;;;;;6.25;4.75;;;;;;;25.38;51.82;100114.84;5053019;28;20025;-87
2021/07/03 05:51:42;;;;;;;5.97;4.53;;;;;;;25.36;51.76;100112.34;5048560;28;20040;-87
2021/07/03 05:54:08;;;;;;;5.38;4.88;;;;;;;25.41;51.87;100106.34;5033460;28;20030;-87
2021/07/03 05:56:34;;;;;;;8.75;5.00;;;;;;;25.41;51.70;100109.03;5032709;28;20037;-87
2021/07/03 05:59:01;;;;;;;7.15;4.80;;;;;;;25.39;51.97;100100.34;5032889;28;20032;-87
2021/07/03 06:01:27;;;;;;;7.30;5.07;;;;;;;25.38;52.02;100101.41;5032899;28;20029;-87
2021/07/03 06:03:52;;;;;;;6.60;4.97;;;;;;;25.39;51.77;100103.03;5032813;28;20033;-87
2021/07/03 06:06:18;;;;;;;5.85;5.13;;;;;;;25.32;51.90;100090.44;5032873;28;20026;-87
2021/07/03 06:08:43;;;;;;;8.77;4.90;;;;;;;25.30;51.86;100103.25;5031266;28;20092;-88
2021/07/03 06:11:09;;;;;;;5.50;4.72;;;;;;;25.31;51.81;100104.09;5033116;28;20032;-88
2021/07/03 06:13:35;;;;;;;6.38;5.25;;;;;;;25.29;52.28;100096.22;5035928;28;20078;-88
2021/07/03 06:16:00;;;;;;;5.30;4.78;;;;;;;25.29;52.29;100096.22;5051798;28;20104;-88
2021/07/03 06:18:26;;;;;;;5.68;4.90;;;;;;;25.29;51.75;100101.59;5052580;28;20171;-88
2021/07/03 06:20:52;;;;;;;7.65;5.10;;;;;;;25.31;52.09;100098.72;5050736;28;20501;-86
2021/07/03 06:23:18;;;;;;;7.18;4.97;;;;;;;25.35;51.85;100107.19;5034804;28;20036;-85
2021/07/03 06:25:43;;;;;;;6.53;5.10;;;;;;;25.32;51.81;100111.94;5031777;28;20029;-86
2021/07/03 06:28:08;;;;;;;4.93;4.45;;;;;;;25.33;51.83;100108.22;5049217;28;20098;-85
2021/07/03 06:30:34;;;;;;;6.07;5.10;;;;;;;25.33;52.16;100105.53;5049954;28;20021;-87
2021/07/03 06:32:59;;;;;;;7.35;4.40;;;;;;;25.35;52.24;100104.50;5042287;28;20118;-86
2021/07/03 06:35:25;;;;;;;5.63;4.57;;;;;;;25.35;51.85;100105.31;5051078;28;20021;-87
2021/07/03 06:37:50;;;;;;;5.50;4.88;;;;;;;25.34;52.33;100109.06;5038146;28;20048;-88
2021/07/03 06:40:15;;;;;;;5.82;4.68;;;;;;;25.29;52.43;100109.66;5051692;28;20040;-87
2021/07/03 06:42:41;;;;;;;6.90;4.68;;;;;;;25.30;52.72;100114.00;5049957;28;20025;-87
2021/07/03 06:45:07;;;;;;;6.60;5.13;;;;;;;25.32;52.50;100111.94;5044286;28;20033;-87
2021/07/03 06:47:32;;;;;;;5.63;4.72;;;;;;;25.31;52.66;100112.97;5031717;28;20072;-87
2021/07/03 06:49:57;;;;;;;5.70;4.53;;;;;;;25.34;52.21;100114.44;5035439;28;20069;-87
2021/07/03 06:52:23;;;;;;;8.63;5.15;;;;;;;25.33;52.24;100116.28;5046916;28;20040;-87
2021/07/03 06:54:48;;;;;;;6.35;5.57;;;;;;;25.32;52.34;100113.81;5051740;28;20056;-88
2021/07/03 06:57:14;;;;;;;5.97;4.72;;;;;;;25.32;52.43;100114.63;5051655;28;20120;-87
2021/07/03 06:59:39;;;;;;;6.25;5.28;;;;;;;25.31;52.29;100120.22;5047903;28;20105;-86
2021/07/03 07:02:04;;;;;;;7.05;5.07;;;;;;;25.29;52.22;100115.03;5040722;28;20367;-87
2021/07/03 07:04:30;;;;;;;6.68;4.97;;;;;;;25.27;52.81;100119.78;5031596;28;20026;-87
2021/07/03 07:06:57;;;;;;;6.97;5.65;;;;;;;25.26;52.69;100112.78;5031176;28;20029;-87
2021/07/03 07:09:26;;;;;;;5.45;4.65;;;;;;;25.29;52.44;100117.72;5040508;28;20098;-86
2021/07/03 07:11:52;;;;;;;5.22;4.47;;;;;;;25.33;52.42;100116.28;5049917;28;20049;-86
2021/07/03 07:14:18;;;;;;;6.80;5.25;;;;;;;25.35;52.50;100112.56;5051466;28;20067;-88
2021/07/03 07:16:44;;;;;;;9.18;5.10;;;;;;;25.46;52.26;100111.94;5050679;28;20044;-88
2021/07/03 07:19:10;;;;;;;8.93;5.03;;;;;;;25.38;52.30;100109.47;5044217;28;20024;-90
2021/07/03 07:21:36;;;;;;;6.70;5.05;;;;;;;25.38;52.30;100112.16;5036887;28;20017;-87
2021/07/03 07:24:02;;;;;;;10.60;4.75;;;;;;;25.41;52.31;100109.84;5050459;28;20021;-87
2021/07/03 07:26:28;;;;;;;5.50;4.28;;;;;;;25.46;52.28;100111.94;5051327;28;20028;-89
2021/07/03 07:28:53;;;;;;;7.57;5.68;;;;;;;25.47;52.02;100113.56;5051895;28;20029;-87
2021/07/03 07:31:19;;;;;;;5.75;4.95;;;;;;;25.47;52.03;100117.06;5055713;28;20036;-89
2021/07/03 07:33:45;;;;;;;7.88;5.45;;;;;;;25.48;51.93;100120.63;5044545;28;20075;-87
2021/07/03 07:36:11;;;;;;;9.23;5.20;;;;;;;25.47;52.10;100116.25;5039532;28;20030;-90
2021/07/03 07:38:37;;;;;;;6.90;5.20;;;;;;;25.50;52.23;100129.28;5044168;28;20025;-88
2021/07/03 07:41:03;;;;;;;5.53;4.78;;;;;;;25.52;51.86;100116.47;5053633;28;20044;-89
2021/07/03 07:43:28;;;;;;;6.55;5.00;;;;;;;25.55;52.02;100124.09;5055280;28;20037;-90
2021/07/03 07:45:55;;;;;;;5.78;4.63;;;;;;;25.57;52.25;100119.34;5052553;28;20108;-89
2021/07/03 07:48:27;;;;;;;9.00;5.82;;;;;;;25.60;52.08;100113.56;5040499;28;20026;-86
2021/07/03 07:50:56;;;;;;;9.57;5.35;;;;;;;25.70;52.14;100118.50;5043856;28;20024;-85
2021/07/03 07:53:21;;;;;;;6.25;4.80;;;;;;;25.74;52.17;100119.72;5054086;28;20048;-85
2021/07/03 07:55:47;;;;;;;9.82;5.35;;;;;;;25.86;52.21;100117.22;5055005;28;20475;-82
2021/07/03 07:58:12;;;;;;;7.57;6.30;;;;;;;25.89;52.20;100114.94;5055372;28;20147;-84
2021/07/03 08:00:37;;;;;;;9.43;6.68;;;;;;;25.91;52.22;100110.19;5044875;28;20498;-85
2021/07/03 08:03:03;;;;;;;10.90;6.13;;;;;;;26.03;51.54;100101.47;5044140;28;20078;-85
2021/07/03 08:05:29;;;;;;;14.13;5.47;;;;;;;26.12;51.56;100100.16;5034789;28;20140;-84
2021/07/03 08:07:54;;;;;;;10.07;6.53;;;;;;;26.28;51.50;100104.22;5038588;28;20035;-86
2021/07/03 08:10:20;;;;;;;8.57;6.20;;;;;;;26.59;51.12;100102.66;5039587;28;20361;-85
2021/07/03 08:12:46;;;;;;;8.70;5.78;;;;;;;26.91;50.42;100103.47;5036393;28;20545;-85
2021/07/03 08:15:12;;;;;;;16.75;7.85;;;;;;;26.92;50.21;100102.44;5054654;28;20025;-84
2021/07/03 08:17:43;;;;;;;17.30;9.30;;;;;;;26.94;50.24;100104.91;5043354;28;20490;-85
2021/07/03 08:20:12;;;;;;;10.52;7.82;;;;;;;26.99;50.04;100096.97;5052358;28;20043;-87
2021/07/03 08:22:37;;;;;;;12.10;8.82;;;;;;;26.87;50.15;100094.97;5036036;28;20040;-85
2021/07/03 08:25:04;;;;;;;12.52;9.05;;;;;;;26.80;50.53;100096.91;5052791;28;20041;-86
2021/07/03 08:27:29;;;;;;;15.60;9.77;;;;;;;26.81;50.59;100087.78;5054522;28;20029;-87
2021/07/03 08:29:54;;;;;;;11.52;8.13;;;;;;;27.14;49.79;100088.56;5042512;28;20083;-86
2021/07/03 08:32:22;;;;;;;25.27;9.48;;;;;;;27.32;49.76;100087.81;5037616;28;20060;-86
2021/07/03 08:34:47;;;;;;;19.08;8.23;;;;;;;27.55;49.12;100090.69;5034163;28;20444;-88
2021/07/03 08:37:12;;;;;;;24.33;8.98;;;;;;;27.67;48.73;100091.59;5035132;28;20045;-88
2021/07/03 08:39:38;;;;;;;13.40;6.80;;;;;;;27.55;49.26;100088.00;5043261;28;20024;-89
2021/07/03 08:42:03;;;;;;;10.30;6.15;;;;;;;27.52;49.21;100080.34;5050993;28;20025;-85
2021/07/03 08:44:29;;;;;;;12.63;6.15;;;;;;;27.78;48.68;100081.91;5053495;28;20029;-84
2021/07/03 08:46:54;;;;;;;18.30;5.35;;;;;;;27.85;48.63;100071.06;5053774;28;20029;-86
2021/07/03 08:49:19;;;;;;;8.13;5.45;;;;;;;28.17;47.72;100077.09;5053120;28;20033;-85
2021/07/03 08:51:47;;;;;;;12.00;5.65;;;;;;;28.01;47.95;100075.84;5049336;28;20036;-85
2021/07/03 08:54:12;;;;;;;12.50;5.35;;;;;;;27.79;48.80;100082.75;5053793;28;20025;-85
2021/07/03 08:56:38;;;;;;;15.32;5.18;;;;;;;27.48;49.50;100081.84;5054491;28;20055;-83
2021/07/03 08:59:20;;;;;;;12.57;5.78;;;;;;;27.39;49.83;100075.91;5056466;28;20025;-83
2021/07/03 09:01:49;;;;;;;10.65;6.05;;;;;;;27.53;49.16;100083.84;5055684;28;20028;-85
2021/07/03 09:04:14;;;;;;;8.88;6.60;;;;;;;27.08;50.24;100079.50;5047753;28;20025;-85
2021/07/03 09:06:40;;;;;;;8.23;6.65;;;;;;;26.85;50.49;100082.78;5046471;28;20028;-84
2021/07/03 09:09:05;;;;;;;12.10;6.93;;;;;;;26.66;50.98;100079.22;5039965;28;20035;-84
2021/07/03 09:11:31;;;;;;;8.55;6.50;;;;;;;26.62;51.42;100080.66;5050690;28;20028;-84
2021/07/03 09:14:02;;;;;;;10.52;6.53;;;;;;;26.73;51.40;100082.66;5036028;28;20072;-84
2021/07/03 09:16:32;;;;;;;8.65;6.00;;;;;;;26.82;51.02;100084.06;5038670;28;20025;-84
2021/07/03 09:18:59;;;;;;;12.82;5.53;;;;;;;26.82;50.80;100086.75;5045186;28;20395;-83
2021/07/03 09:21:25;;;;;;;7.72;4.70;;;;;;;26.84;50.67;100086.53;5045336;28;20029;-85
2021/07/03 09:23:50;;;;;;;7.93;4.25;;;;;;;26.85;50.42;100086.28;5052212;28;20033;-84
2021/07/03 09:26:15;;;;;;;7.65;4.60;;;;;;;26.89;50.13;100084.00;5036075;28;20080;-82
2021/07/03 09:28:45;;;;;;;5.15;4.10;;;;;;;26.92;50.21;100083.56;5041269;28;20115;-82
2021/07/03 09:31:13;;;;;;;6.10;3.97;;;;;;;26.95;50.17;100085.00;5053673;28;20032;-83
2021/07/03 09:33:43;;;;;;;5.30;4.07;;;;;;;26.95;50.25;100085.00;5038609;28;20533;-83
2021/07/03 09:36:11;;;;;;;5.23;3.83;;;;;;;27.09;50.05;100081.13;5048451;28;20025;-79
2021/07/03 09:38:42;;;;;;;4.05;2.95;;;;;;;27.14;50.73;100084.00;5033600;28;20270;-78
2021/07/03 09:41:14;;;;;;;9.77;3.10;;;;;;;27.45;50.13;100082.28;5042532;28;20033;-80
2021/07/03 09:43:48;;;;;;;5.85;2.90;;;;;;;27.76;49.34;100077.78;5035210;28;20021;-79
2021/07/03 09:46:48;;;;;;;7.97;3.47;;;;;;;27.39;49.71;100066.97;5032708;28;20040;-80
2021/07/03 09:49:16;;;;;;;3.45;2.88;;;;;;;27.19;49.72;100068.00;5041700;28;20084;-80
2021/07/03 09:51:44;;;;;;;5.00;3.17;;;;;;;27.09;50.27;100070.34;5039997;28;20029;-80
2021/07/03 09:54:11;;;;;;;4.53;3.05;;;;;;;26.98;50.63;100076.47;5042410;28;20027;-79
2021/07/03 09:56:38;;;;;;;6.40;3.20;;;;;;;26.93;50.61;100077.13;5033229;28;20026;-79
2021/07/03 09:59:04;;;;;;;5.28;2.58;;;;;;;27.01;50.36;100082.22;5050000;28;20062;-79
2021/07/03 10:01:29;;;;;;;5.28;2.28;;;;;;;26.96;50.53;100078.56;5046816;28;20018;-79
2021/07/03 10:03:56;;;;;;;3.60;2.10;;;;;;;26.92;50.91;100080.88;5051789;28;20425;-80
2021/07/03 10:06:46;;;;;;;4.55;2.22;;;;;;;26.94;50.75;100081.47;5045033;28;20022;-80
2021/07/03 10:09:30;;;;;;;2.65;1.83;;;;;;;26.90;50.94;100077.56;5036811;28;20028;-78
2021/07/03 10:11:59;;;;;;;8.07;2.17;;;;;;;26.76;50.97;100084.09;5045321;28;20029;-79
2021/07/03 10:14:25;;;;;;;3.53;2.00;;;;;;;26.64;50.45;100081.28;5038293;28;20021;-79
2021/07/03 10:17:04;;;;;;;4.85;2.38;;;;;;;26.68;50.60;100082.50;5036663;28;20075;-80
2021/07/03 10:19:34;;;;;;;4.55;1.92;;;;;;;26.80;50.51;100075.38;5040975;28;20025;-79
2021/07/03 10:22:20;;;;;;;2.42;1.85;;;;;;;27.08;49.84;100074.09;5041826;28;20060;-79
2021/07/03 10:24:54;;;;;;;4.18;1.88;;;;;;;27.04;50.03;100078.28;5035456;28;20021;-79
2021/07/03 10:27:25;;;;;;;2.63;1.60;;;;;;;27.28;49.50;100074.75;5043964;28;20682;-80
2021/07/03 10:29:53;;;;;;;1.90;1.20;;;;;;;27.26;49.55;100074.16;5043610;28;20116;-80
2021/07/03 10:32:53;;;;;;;6.07;1.95;;;;;;;27.28;49.87;100082.84;5050437;28;20040;-80
2021/07/03 10:35:20;;;;;;;3.67;1.42;;;;;;;27.28;50.01;100080.16;5028384;28;20451;-79
2021/07/03 10:37:46;;;;;;;4.25;1.67;;;;;;;27.34;49.71;100081.13;5033154;28;20387;-79
2021/07/03 10:40:20;;;;;;;7.22;1.52;;;;;;;27.39;49.76;100078.63;5032189;28;20029;-79
2021/07/03 10:42:47;;;;;;;3.47;1.52;;;;;;;27.45;49.80;100074.22;5013746;28;20045;-83
2021/07/03 10:45:18;;;;;;;4.60;1.38;;;;;;;27.47;49.60;100080.19;5044074;28;20061;-83
2021/07/03 10:47:44;;;;;;;3.75;1.60;;;;;;;27.44;49.94;100069.84;5047620;28;20025;-83
2021/07/03 10:50:25;;;;;;;1.70;1.27;;;;;;;27.45;49.96;100071.50;5041972;28;20417;-83
2021/07/03 10:52:53;;;;;;;1.67;1.40;;;;;;;27.41;49.94;100070.28;5036541;28;20036;-83
2021/07/03 10:55:32;;;;;;;3.08;1.38;;;;;;;27.37;50.15;100063.69;5043801;28;20072;-84
2021/07/03 10:57:59;;;;;;;2.78;1.45;;;;;;;27.40;50.21;100074.84;5038839;28;20487;-84
2021/07/03 11:00:25;;;;;;;2.75;1.70;;;;;;;27.26;50.60;100068.78;5037144;28;20442;-84
2021/07/03 11:02:51;;;;;;;6.55;1.50;;;;;;;27.22;50.51;100066.72;5036559;28;20033;-84
2021/07/03 11:05:17;;;;;;;4.22;1.73;;;;;;;27.19;50.64;100072.53;5043183;28;20021;-83
2021/07/03 11:07:46;;;;;;;11.73;1.42;;;;;;;27.15;50.72;100069.47;5044082;28;20028;-83
2021/07/03 11:10:14;;;;;;;3.85;1.80;;;;;;;27.08;50.38;100069.53;5046612;28;20052;-84
2021/07/03 11:12:49;;;;;;;2.60;1.70;;;;;;;27.20;50.65;100066.13;5044050;28;20025;-84
2021/07/03 11:15:17;;;;;;;3.78;2.05;;;;;;;27.20;50.43;100066.13;5038215;28;20080;-84
2021/07/03 11:17:43;;;;;;;2.28;1.75;;;;;;;27.20;50.43;100068.81;5031472;28;20087;-84
2021/07/03 11:20:09;;;;;;;2.65;1.60;;;;;;;27.19;50.19;100062.63;5043960;28;20025;-84
2021/07/03 11:22:42;;;;;;;7.28;2.00;;;;;;;27.08;50.40;100066.03;5051079;28;20029;-84